createdAt,value
2023-04-18T00:00:20.197Z,102736.00
2023-04-18T00:05:22.764Z,102730.19
2023-04-18T00:10:25.551Z,102688.41
2023-04-18T00:15:29.401Z,102723.59
2023-04-18T00:20:32.986Z,102730.16
2023-04-18T00:25:35.438Z,102712.44
2023-04-18T00:30:38.102Z,102733.06
2023-04-18T00:35:41.511Z,102718.59
2023-04-18T00:40:44.164Z,102729.25
2023-04-18T00:45:46.479Z,102733.16
2023-04-18T00:50:49.115Z,102722.59
2023-04-18T00:55:51.793Z,102742.16
2023-04-18T01:00:55.007Z,102738.94
2023-04-18T01:05:57.709Z,102736.31
2023-04-18T01:11:01.283Z,102744.00
2023-04-18T01:16:05.295Z,102727.94
2023-04-18T01:21:08.618Z,102740.75
2023-04-18T01:26:11.196Z,102733.47
2023-04-18T01:31:14.030Z,102732.53
2023-04-18T01:36:16.909Z,102719.06
2023-04-18T01:41:19.347Z,102724.94
2023-04-18T01:46:24.287Z,102755.19
2023-04-18T01:51:28.055Z,102724.69
2023-04-18T01:56:30.972Z,102755.47
2023-04-18T02:01:35.669Z,102749.44
2023-04-18T02:06:38.541Z,102731.00
2023-04-18T02:11:41.970Z,102747.47
2023-04-18T02:16:44.550Z,102740.16
2023-04-18T02:21:47.484Z,102758.28
2023-04-18T02:26:51.419Z,102741.66
2023-04-18T02:31:54.898Z,102743.91
2023-04-18T02:36:57.290Z,102741.25
2023-04-18T02:42:00.637Z,102758.44
2023-04-18T02:47:02.960Z,102773.53
2023-04-18T02:52:06.252Z,102699.75
2023-04-18T02:57:08.598Z,102765.25
2023-04-18T03:02:22.917Z,102773.63
2023-04-18T03:07:31.392Z,102770.66
2023-04-18T03:12:35.305Z,102738.31
2023-04-18T03:17:39.559Z,102719.91
2023-04-18T03:22:42.415Z,102756.41
2023-04-18T03:27:45.805Z,102774.47
2023-04-18T03:32:56.440Z,102768.09
2023-04-18T03:37:58.866Z,102769.53
2023-04-18T03:43:06.333Z,102770.28
2023-04-18T03:48:09.356Z,102769.84
2023-04-18T03:53:17.641Z,102774.22
2023-04-18T03:58:23.872Z,102772.47
2023-04-18T04:03:28.068Z,102755.91
2023-04-18T04:08:31.330Z,102741.13
2023-04-18T04:13:34.356Z,102716.97
2023-04-18T04:18:37.966Z,102739.97
2023-04-18T04:23:43.366Z,102754.59
2023-04-18T04:28:53.808Z,102738.38
2023-04-18T04:34:02.244Z,102764.47
2023-04-18T04:39:07.343Z,102763.69
2023-04-18T04:44:27.547Z,102748.38
2023-04-18T04:49:30.033Z,102765.03
2023-04-18T04:54:34.638Z,102756.78
2023-04-18T04:59:39.426Z,102725.84
2023-04-18T05:04:42.963Z,102733.06
2023-04-18T05:09:46.628Z,102751.88
2023-04-18T05:14:50.115Z,102759.19
2023-04-18T05:19:54.176Z,102747.34
2023-04-18T05:24:57.030Z,102738.03
2023-04-18T05:29:59.710Z,102733.06
2023-04-18T05:35:03.300Z,102741.09
2023-04-18T05:40:06.947Z,102715.88
2023-04-18T05:45:11.151Z,102721.53
2023-04-18T05:50:16.002Z,102735.66
2023-04-18T05:55:19.956Z,102749.88
2023-04-18T06:00:24.427Z,102742.44
2023-04-18T06:05:27.930Z,102732.78
2023-04-18T06:10:31.148Z,102707.22
2023-04-18T06:15:35.727Z,102692.72
2023-04-18T06:20:39.572Z,102728.00
2023-04-18T06:25:43.244Z,102748.84
2023-04-18T06:30:45.700Z,102695.94
2023-04-18T06:35:48.773Z,102739.81
2023-04-18T06:40:51.878Z,102680.31
2023-04-18T06:45:55.511Z,102716.38
2023-04-18T06:50:58.243Z,102678.81
2023-04-18T06:56:01.789Z,102728.16
2023-04-18T07:01:04.429Z,102724.00
2023-04-18T07:06:09.675Z,102710.00
2023-04-18T07:11:13.584Z,102687.50
2023-04-18T07:16:16.919Z,102706.28
2023-04-18T07:21:19.842Z,102724.28
2023-04-18T07:26:23.348Z,102705.63
2023-04-18T07:31:28.985Z,102700.78
2023-04-18T07:36:35.004Z,102703.59
2023-04-18T07:41:38.092Z,102697.06
2023-04-18T07:46:45.564Z,102665.75
2023-04-18T07:51:48.032Z,102648.66
2023-04-18T07:56:51.252Z,102691.06
2023-04-18T08:01:54.753Z,102682.88
2023-04-18T08:06:57.695Z,102667.91
2023-04-18T08:12:00.369Z,102644.84
2023-04-18T08:17:03.634Z,102653.41
2023-04-18T08:22:11.762Z,102664.25
2023-04-18T08:27:14.214Z,102645.41
2023-04-18T08:32:17.868Z,102607.56
2023-04-18T08:37:21.760Z,102637.31
2023-04-18T08:42:36.632Z,102627.34
2023-04-18T08:47:48.709Z,102630.03
2023-04-18T08:52:55.752Z,102594.44
2023-04-18T08:57:58.660Z,102590.66
2023-04-18T09:03:04.726Z,102576.53
2023-04-18T09:08:23.180Z,102612.00
2023-04-18T09:13:40.080Z,102595.03
2023-04-18T09:19:14.409Z,102583.84
2023-04-18T09:24:22.554Z,102612.09
2023-04-18T09:29:49.629Z,102564.31
2023-04-18T09:35:03.912Z,102561.50
2023-04-18T09:40:19.653Z,102580.16
2023-04-18T09:45:24.389Z,102583.34
2023-04-18T09:50:27.859Z,102582.53
2023-04-18T09:55:33.111Z,102538.66
2023-04-18T10:00:38.617Z,102565.13
2023-04-18T10:05:42.844Z,102539.75
2023-04-18T10:10:45.962Z,102551.53
2023-04-18T10:15:51.629Z,102539.63
2023-04-18T10:21:09.342Z,102561.25
2023-04-18T10:26:15.071Z,102559.53
2023-04-18T10:31:18.042Z,102538.63
2023-04-18T10:36:22.281Z,102529.91
2023-04-18T10:41:30.382Z,102537.97
2023-04-18T10:47:04.595Z,102527.38
2023-04-18T10:52:08.616Z,102489.34
2023-04-18T10:57:12.242Z,102523.84
2023-04-18T11:02:32.634Z,102525.38
2023-04-18T11:07:36.709Z,102519.19
2023-04-18T11:12:46.369Z,102515.97
2023-04-18T11:18:04.655Z,102503.19
2023-04-18T11:23:17.774Z,102441.81
2023-04-18T11:28:22.295Z,102470.16
2023-04-18T11:33:29.490Z,102445.72
2023-04-18T11:38:31.986Z,102351.00
2023-04-18T11:43:35.689Z,102393.66
2023-04-18T11:48:42.595Z,102467.03
2023-04-18T11:53:45.784Z,102402.97
2023-04-18T11:58:48.575Z,102438.34
2023-04-18T12:04:08.448Z,102391.28
2023-04-18T12:09:17.390Z,102450.13
2023-04-18T12:14:23.231Z,102450.88
2023-04-18T12:19:28.865Z,102422.91
2023-04-18T12:24:32.370Z,102426.81
2023-04-18T12:29:35.891Z,102404.06
2023-04-18T12:34:40.764Z,102419.84
2023-04-18T12:39:44.070Z,102439.91
2023-04-18T12:44:48.784Z,102405.66
2023-04-18T12:49:58.546Z,102402.16
2023-04-18T12:55:10.670Z,102375.09
2023-04-18T13:00:14.612Z,102282.25
2023-04-18T13:05:32.575Z,102393.81
2023-04-18T13:10:37.021Z,102400.63
2023-04-18T13:15:39.401Z,102403.66
2023-04-18T13:20:41.808Z,102386.13
2023-04-18T13:25:44.165Z,102389.16
2023-04-18T13:30:46.738Z,102374.59
2023-04-18T13:35:53.490Z,102352.31
2023-04-18T13:41:10.878Z,102392.78
2023-04-18T13:46:17.991Z,102370.41
2023-04-18T13:51:20.917Z,102379.28
2023-04-18T13:56:23.463Z,102366.84
2023-04-18T14:01:26.650Z,102367.50
2023-04-18T14:06:29.490Z,102373.47
2023-04-18T14:11:32.936Z,102309.69
2023-04-18T14:16:35.314Z,102349.72
2023-04-18T14:21:37.875Z,102318.31
2023-04-18T14:26:40.146Z,102324.00
2023-04-18T14:31:43.156Z,102308.44
2023-04-18T14:36:46.344Z,102349.72
2023-04-18T14:41:49.310Z,102313.41
2023-04-18T14:46:52.260Z,102334.78
2023-04-18T14:51:54.617Z,102288.31
2023-04-18T14:56:57.660Z,102328.66
2023-04-18T15:02:00.171Z,102324.00
2023-04-18T15:07:02.688Z,102307.75
2023-04-18T15:12:06.883Z,102311.38
2023-04-18T15:17:10.192Z,102285.88
2023-04-18T15:22:12.718Z,102322.50
2023-04-18T15:27:15.334Z,102299.78
2023-04-18T15:32:18.233Z,102311.91
2023-04-18T15:37:21.627Z,102309.31
2023-04-18T15:42:23.950Z,102273.94
2023-04-18T15:47:26.690Z,102295.06
2023-04-18T15:52:29.408Z,102280.63
2023-04-18T15:57:32.525Z,102297.50
2023-04-18T16:02:34.865Z,102244.38
2023-04-18T16:07:37.741Z,102288.78
2023-04-18T16:12:40.164Z,102297.22
2023-04-18T16:17:42.782Z,102307.53
2023-04-18T16:22:45.263Z,102311.47
2023-04-18T16:27:47.972Z,102325.69
2023-04-18T16:32:51.195Z,102305.38
2023-04-18T16:37:53.861Z,102300.06
2023-04-18T16:42:57.314Z,102307.47
2023-04-18T16:47:59.607Z,102266.19
2023-04-18T16:53:02.299Z,102279.94
2023-04-18T16:58:04.636Z,102306.03
2023-04-18T17:03:10.482Z,102297.81
2023-04-18T17:08:13.252Z,102301.13
2023-04-18T17:13:15.624Z,102308.06
2023-04-18T17:18:17.954Z,102303.16
2023-04-18T17:23:20.226Z,102287.16
2023-04-18T17:28:23.866Z,102287.56
2023-04-18T17:33:26.330Z,102312.19
2023-04-18T17:38:28.713Z,102322.28
2023-04-18T17:43:31.293Z,102316.28
2023-04-18T17:48:34.398Z,102301.88
2023-04-18T17:53:37.222Z,102332.69
2023-04-18T17:58:39.907Z,102315.41
2023-04-18T18:03:43.455Z,102322.41
2023-04-18T18:08:46.092Z,102318.47
2023-04-18T18:13:52.038Z,102345.97
2023-04-18T18:18:54.868Z,102345.13
2023-04-18T18:23:57.330Z,102340.78
2023-04-18T18:28:59.780Z,102353.69
2023-04-18T18:34:02.413Z,102351.16
2023-04-18T18:39:04.792Z,102339.06
2023-04-18T18:44:07.813Z,102348.81
2023-04-18T18:49:10.216Z,102342.63
2023-04-18T18:54:13.487Z,102329.66
2023-04-18T18:59:16.110Z,102325.91
2023-04-18T19:04:18.791Z,102341.50
2023-04-18T19:09:21.236Z,102327.91
2023-04-18T19:14:23.769Z,102335.50
2023-04-18T19:19:26.168Z,102340.81
2023-04-18T19:24:28.875Z,102309.69
2023-04-18T19:29:32.715Z,102329.97
2023-04-18T19:34:35.638Z,102321.72
2023-04-18T19:39:38.072Z,102334.38
2023-04-18T19:44:40.851Z,102322.41
2023-04-18T19:49:44.592Z,102286.19
2023-04-18T19:54:47.017Z,102325.19
2023-04-18T19:59:49.609Z,102313.56
2023-04-18T20:04:52.270Z,102337.38
2023-04-18T20:09:54.784Z,102258.19
2023-04-18T20:14:59.011Z,102271.13
2023-04-18T20:20:01.637Z,102316.38
2023-04-18T20:25:06.919Z,102302.19
2023-04-18T20:30:10.910Z,102294.13
2023-04-18T20:35:14.254Z,102303.88
2023-04-18T20:40:16.753Z,102310.25
2023-04-18T20:45:19.667Z,102293.59
2023-04-18T20:50:22.187Z,102306.66
2023-04-18T20:55:24.521Z,102304.75
2023-04-18T21:00:28.844Z,102301.13
2023-04-18T21:05:32.320Z,102309.09
2023-04-18T21:10:35.119Z,102285.59
2023-04-18T21:15:39.090Z,102297.84
2023-04-18T21:20:42.145Z,102290.97
2023-04-18T21:25:45.265Z,102280.38
2023-04-18T21:30:48.246Z,102281.84
2023-04-18T21:35:51.667Z,102253.66
2023-04-18T21:40:54.618Z,102294.50
2023-04-18T21:45:56.929Z,102280.84
2023-04-18T21:51:00.519Z,102282.69
2023-04-18T21:56:03.048Z,102271.66
2023-04-18T22:01:05.718Z,102258.41
2023-04-18T22:06:08.116Z,102257.28
2023-04-18T22:11:11.906Z,102269.47
2023-04-18T22:16:16.106Z,102255.97
2023-04-18T22:21:18.693Z,102262.47
2023-04-18T22:26:22.140Z,102229.06
2023-04-18T22:31:25.766Z,102223.00
2023-04-18T22:36:28.227Z,102247.34
2023-04-18T22:41:30.581Z,102235.63
2023-04-18T22:46:33.554Z,102244.81
2023-04-18T22:51:35.987Z,102204.13
2023-04-18T22:56:38.889Z,102227.88
2023-04-18T23:01:41.348Z,102202.53
2023-04-18T23:06:45.037Z,102189.66
2023-04-18T23:11:48.037Z,102193.81
2023-04-18T23:16:52.030Z,102205.66
2023-04-18T23:21:54.900Z,102188.84
2023-04-18T23:26:58.410Z,102190.97
2023-04-18T23:32:00.886Z,102168.19
2023-04-18T23:37:03.280Z,102176.78
2023-04-18T23:42:05.783Z,102173.53
2023-04-18T23:47:08.322Z,102132.41
2023-04-18T23:52:10.962Z,102143.75
2023-04-18T23:57:13.347Z,102156.34
